createdAt,value
2023-11-13T00:03:32.872Z,43.8
2023-11-13T00:09:25.941Z,43.8
2023-11-13T00:15:17.044Z,43.8
2023-11-13T00:21:10.144Z,43.7
2023-11-13T00:27:01.694Z,43.7
2023-11-13T00:32:53.725Z,43.7
2023-11-13T00:38:46.201Z,43.6
2023-11-13T00:44:41.259Z,43.6
2023-11-13T00:50:33.336Z,43.6
2023-11-13T00:56:25.877Z,43.5
2023-11-13T01:02:17.693Z,43.4
2023-11-13T01:08:10.831Z,43.4
2023-11-13T01:14:03.142Z,43.4
2023-11-13T01:19:54.181Z,43.4
2023-11-13T01:25:48.209Z,43.3
2023-11-13T01:31:41.546Z,43.3
2023-11-13T01:37:33.252Z,43.3
2023-11-13T01:43:24.910Z,43.3
2023-11-13T01:49:17.833Z,43.2
2023-11-13T01:55:09.571Z,43.2
2023-11-13T02:01:00.884Z,43.1
2023-11-13T02:06:53.501Z,43.1
2023-11-13T02:12:45.108Z,42.7
2023-11-13T02:18:36.831Z,43.4
2023-11-13T02:24:13.695Z,45
2023-11-13T02:30:05.208Z,46.9
2023-11-13T02:35:57.291Z,48.8
2023-11-13T02:41:48.909Z,50.8
2023-11-13T02:47:40.314Z,52.6
2023-11-13T02:53:32.254Z,54.5
2023-11-13T02:59:25.034Z,56.4
2023-11-13T03:05:17.321Z,57.6
2023-11-13T03:11:08.759Z,57.7
2023-11-13T03:16:45.082Z,57.6
2023-11-13T03:22:36.700Z,58.7
2023-11-13T03:28:13.060Z,60.2
2023-11-13T03:34:05.992Z,60.3
2023-11-13T03:39:41.827Z,60.3
2023-11-13T03:45:33.903Z,60.3
2023-11-13T03:51:26.252Z,60.2
2023-11-13T03:57:18.204Z,60.1
2023-11-13T04:03:10.965Z,60.1
2023-11-13T04:09:03.493Z,60.1
2023-11-13T04:14:54.202Z,60
2023-11-13T04:20:30.953Z,60
2023-11-13T04:26:23.196Z,59.9
2023-11-13T04:32:03.171Z,59.9
2023-11-13T04:37:40.291Z,59.9
2023-11-13T04:43:32.226Z,59.8
2023-11-13T04:49:24.450Z,59.8
2023-11-13T04:55:15.313Z,59.7
2023-11-13T05:01:11.598Z,59.7
2023-11-13T05:07:04.108Z,59.6
2023-11-13T05:12:56.149Z,59.6
2023-11-13T05:18:50.950Z,59.5
2023-11-13T05:24:42.900Z,59.4
2023-11-13T05:30:34.852Z,59.4
2023-11-13T05:36:27.796Z,59.3
2023-11-13T05:42:18.715Z,59.3
2023-11-13T05:48:11.282Z,59.3
2023-11-13T05:54:06.185Z,59.2
2023-11-13T05:59:58.565Z,59.1
2023-11-13T06:05:51.209Z,59.1
2023-11-13T06:11:46.439Z,59.1
2023-11-13T06:17:37.697Z,59
2023-11-13T06:23:13.676Z,58.9
2023-11-13T06:29:09.345Z,58.9
2023-11-13T06:35:03.571Z,58.8
2023-11-13T06:40:40.298Z,58.8
2023-11-13T06:46:33.201Z,58.8
2023-11-13T06:52:25.602Z,58.7
2023-11-13T06:58:17.160Z,58.7
2023-11-13T07:04:11.045Z,58.6
2023-11-13T07:15:41.578Z,58.5
2023-11-13T07:21:34.938Z,58.4
2023-11-13T07:27:26.875Z,58.4
2023-11-13T07:33:19.116Z,58.4
2023-11-13T07:39:12.190Z,58.3
2023-11-13T07:45:03.549Z,58.3
2023-11-13T07:51:14.418Z,58.2
2023-11-13T07:57:06.980Z,58.1
2023-11-13T08:03:00.500Z,58.1
2023-11-13T08:09:00.453Z,58.1
2023-11-13T08:14:53.412Z,58
2023-11-13T08:20:44.684Z,57.9
2023-11-13T08:26:37.690Z,57.9
2023-11-13T08:32:33.661Z,57.9
2023-11-13T08:38:25.482Z,57.8
2023-11-13T08:44:15.695Z,57.8
2023-11-13T08:50:25.210Z,58.1
2023-11-13T08:56:16.823Z,58.3
2023-11-13T09:01:54.246Z,58.4
2023-11-13T09:07:51.220Z,58.4
2023-11-13T09:13:43.330Z,58.6
2023-11-13T09:19:19.870Z,58.6
2023-11-13T09:25:12.871Z,58.6
2023-11-13T09:31:04.098Z,58.7
2023-11-13T09:36:55.870Z,59.1
2023-11-13T09:42:48.982Z,59.2
2023-11-13T09:48:54.039Z,59.4
2023-11-13T09:54:54.512Z,59.6
2023-11-13T10:00:47.661Z,59.8
2023-11-13T10:06:44.051Z,60
2023-11-13T10:12:20.385Z,60.2
2023-11-13T10:18:14.229Z,60.4
2023-11-13T10:23:53.945Z,60.6
2023-11-13T10:30:03.689Z,60.8
2023-11-13T10:35:42.419Z,61
2023-11-13T10:41:42.319Z,61.2
2023-11-13T10:47:37.725Z,61.4
2023-11-13T10:53:30.638Z,61.6
2023-11-13T10:59:09.221Z,61.7
2023-11-13T11:05:05.921Z,61.8
2023-11-13T11:11:03.550Z,62
2023-11-13T11:16:59.858Z,62.1
2023-11-13T11:22:54.343Z,62.3
2023-11-13T11:28:58.709Z,62.4
2023-11-13T11:34:35.829Z,62.3
2023-11-13T11:40:11.738Z,62.3
2023-11-13T11:46:08.487Z,62.4
2023-11-13T11:52:14.467Z,62.7
2023-11-13T11:58:06.436Z,62.7
2023-11-13T12:04:01.770Z,62.6
2023-11-13T12:09:53.706Z,62.7
2023-11-13T12:15:29.710Z,62.8
2023-11-13T12:21:37.069Z,62.8
2023-11-13T12:27:27.851Z,62.8
2023-11-13T12:33:20.532Z,62.8
2023-11-13T12:38:57.897Z,62.8
2023-11-13T12:44:54.066Z,62.8
2023-11-13T12:50:48.263Z,62.7
2023-11-13T12:56:29.118Z,62.7
2023-11-13T13:02:32.744Z,62.6
2023-11-13T13:08:29.803Z,62.6
2023-11-13T13:14:39.368Z,62.6
2023-11-13T13:20:31.944Z,62.6
2023-11-13T13:26:24.163Z,62.5
2023-11-13T13:32:18.825Z,62.5
2023-11-13T13:38:11.278Z,62.4
2023-11-13T13:44:02.616Z,62.4
2023-11-13T13:49:55.405Z,62.3
2023-11-13T13:55:50.572Z,62.3
2023-11-13T14:01:57.055Z,62.3
2023-11-13T14:07:50.760Z,62.2
2023-11-13T14:14:03.791Z,62.1
2023-11-13T14:19:56.788Z,62.1
2023-11-13T14:25:52.195Z,62.1
2023-11-13T14:31:14.582Z,62
2023-11-13T14:37:06.800Z,62
2023-11-13T14:42:45.821Z,61.9
2023-11-13T14:48:40.097Z,61.9
2023-11-13T14:54:37.983Z,61.8
2023-11-13T15:00:31.451Z,61.8
2023-11-13T15:06:25.149Z,61.7
2023-11-13T15:12:15.922Z,61.7
2023-11-13T15:18:09.419Z,61.6
2023-11-13T15:24:49.814Z,61.6
2023-11-13T15:30:27.916Z,61.5
2023-11-13T15:36:28.838Z,61.4
2023-11-13T15:42:21.088Z,61.4
2023-11-13T15:47:57.795Z,61.4
2023-11-13T15:53:35.280Z,61.3
2023-11-13T15:59:27.776Z,61.3
2023-11-13T16:05:23.547Z,61.2
2023-11-13T16:11:16.840Z,61.2
2023-11-13T16:17:10.045Z,61.1
2023-11-13T16:22:49.609Z,61.1
2023-11-13T16:28:41.825Z,61
2023-11-13T16:34:34.148Z,61
2023-11-13T16:40:08.594Z,60.9
2023-11-13T16:46:01.434Z,60.9
2023-11-13T16:51:55.865Z,60.8
2023-11-13T16:57:51.458Z,60.8
2023-11-13T17:03:44.606Z,60.7
2023-11-13T17:09:38.697Z,60.7
2023-11-13T17:15:14.819Z,60.6
2023-11-13T17:21:11.432Z,60.6
2023-11-13T17:26:51.065Z,60.5
2023-11-13T17:32:45.291Z,60.5
2023-11-13T17:38:37.534Z,60.4
2023-11-13T17:44:13.886Z,60.4
2023-11-13T17:49:50.025Z,60.3
2023-11-13T17:55:41.969Z,60.3
2023-11-13T18:01:36.929Z,60.3
2023-11-13T18:07:32.591Z,60.2
2023-11-13T18:13:09.218Z,60.1
2023-11-13T18:19:00.817Z,60.1
2023-11-13T18:24:51.382Z,60
2023-11-13T18:30:23.358Z,60
2023-11-13T18:36:15.511Z,59.9
2023-11-13T18:42:10.803Z,59.9
2023-11-13T18:48:03.618Z,59.8
2023-11-13T18:53:54.905Z,59.8
2023-11-13T18:59:45.760Z,59.8
2023-11-13T19:05:26.074Z,59.7
2023-11-13T19:11:23.566Z,59.6
2023-11-13T19:17:14.932Z,59.6
2023-11-13T19:23:07.905Z,59.5
2023-11-13T19:28:44.514Z,59.5
2023-11-13T19:34:04.829Z,59.4
2023-11-13T19:39:42.083Z,59.4
2023-11-13T19:45:13.368Z,59.4
2023-11-13T19:51:05.923Z,59.3
2023-11-13T19:56:54.106Z,59.3
2023-11-13T20:02:15.931Z,59.2
2023-11-13T20:07:40.077Z,59.2
2023-11-13T20:13:17.587Z,59.1
2023-11-13T20:19:06.547Z,59.1
2023-11-13T20:24:27.406Z,59
2023-11-13T20:30:28.080Z,59
2023-11-13T20:36:08.176Z,58.9
2023-11-13T20:41:44.119Z,58.9
2023-11-13T20:47:20.982Z,58.8
2023-11-13T20:52:58.190Z,58.8
2023-11-13T20:58:33.911Z,58.7
2023-11-13T21:03:57.495Z,58.7
2023-11-13T21:09:47.235Z,58.6
2023-11-13T21:15:38.894Z,58.6
2023-11-13T21:26:53.240Z,58.5
2023-11-13T21:32:30.644Z,58.4
2023-11-13T21:38:07.507Z,58.4
2023-11-13T21:43:59.322Z,58.4
2023-11-13T21:49:20.549Z,58.3
2023-11-13T21:55:12.370Z,58.3
2023-11-13T22:00:50.529Z,58.3
2023-11-13T22:06:12.640Z,58.2
2023-11-13T22:12:04.578Z,58.1
2023-11-13T22:17:42.220Z,58.1
2023-11-13T22:23:18.548Z,58
2023-11-13T22:28:54.990Z,58
2023-11-13T22:34:31.574Z,57.9
2023-11-13T22:40:07.580Z,57.9
2023-11-13T22:45:44.529Z,57.9
2023-11-13T22:51:21.869Z,57.8
2023-11-13T23:02:35.613Z,57.7
2023-11-13T23:07:57.228Z,57.7
2023-11-13T23:13:33.091Z,57.6
2023-11-13T23:19:10.707Z,57.6
2023-11-13T23:25:11.043Z,57.5
2023-11-13T23:30:47.225Z,57.5
2023-11-13T23:36:23.915Z,57.4
2023-11-13T23:42:00.991Z,57.4
2023-11-13T23:47:37.055Z,57.4
2023-11-13T23:53:13.430Z,57.3
2023-11-13T23:58:50.186Z,57.3
